Time;durP1;ratioP1;P1;durP2;ratioP2;P2;SDS_P1;SDS_P2;PMS_P1;PMS_P2;Temp;Humidity;BMP_temperature;BMP_pressure;BME280_temperature;BME280_humidity;BME280_pressure;Samples;Min_cycle;Max_cycle;Signal;HPM_P1;HPM_P2
2022/03/17 00:02:02;;;;;;;39.78;32.38;;;;;;;;;;5058289;28;20255;-68
2022/03/17 00:04:30;;;;;;;44.95;33.58;;;;;;;;;;5058138;28;20235;-68
2022/03/17 00:06:56;;;;;;;37.22;30.42;;;;;;;;;;5058233;28;20225;-68
2022/03/17 00:09:23;;;;;;;39.47;32.08;;;;;;;;;;5057958;28;20286;-68
2022/03/17 00:11:49;;;;;;;40.38;32.45;;;;;;;;;;5058053;28;20213;-68
2022/03/17 00:14:16;;;;;;;38.72;30.40;;;;;;;;;;5058497;28;20538;-68
2022/03/17 00:16:42;;;;;;;37.85;31.75;;;;;;;;;;5057728;28;20437;-68
2022/03/17 00:19:09;;;;;;;41.58;32.05;;;;;;;;;;5057817;28;20205;-68
2022/03/17 00:21:37;;;;;;;35.58;29.52;;;;;;;;;;5057825;28;20251;-68
2022/03/17 00:24:03;;;;;;;36.60;30.50;;;;;;;;;;5057978;28;20580;-68
2022/03/17 00:26:30;;;;;;;39.70;32.50;;;;;;;;;;5057551;28;20224;-68
2022/03/17 00:28:56;;;;;;;38.33;31.60;;;;;;;;;;5057190;28;20225;-68
2022/03/17 00:31:22;;;;;;;39.10;31.73;;;;;;;;;;5057921;28;20381;-68
2022/03/17 00:33:49;;;;;;;37.67;30.23;;;;;;;;;;5057795;28;20574;-68
2022/03/17 00:36:15;;;;;;;40.47;31.63;;;;;;;;;;5057794;28;20455;-68
2022/03/17 00:38:43;;;;;;;39.75;31.25;;;;;;;;;;5057261;28;20216;-68
2022/03/17 00:41:09;;;;;;;39.33;31.38;;;;;;;;;;5057539;28;20209;-68
2022/03/17 00:43:35;;;;;;;39.42;31.52;;;;;;;;;;5057452;28;20209;-68
2022/03/17 00:46:02;;;;;;;38.28;31.02;;;;;;;;;;5057387;28;20212;-68
2022/03/17 00:48:29;;;;;;;41.35;30.83;;;;;;;;;;5057610;28;20271;-68
2022/03/17 00:50:55;;;;;;;38.63;30.42;;;;;;;;;;5057092;28;20225;-68
2022/03/17 00:53:21;;;;;;;38.72;31.02;;;;;;;;;;5057504;28;20209;-68
2022/03/17 00:55:49;;;;;;;36.83;30.60;;;;;;;;;;5057110;28;20224;-68
2022/03/17 00:58:15;;;;;;;41.63;32.47;;;;;;;;;;5056848;28;20216;-68
2022/03/17 01:00:41;;;;;;;36.38;30.83;;;;;;;;;;5056730;28;20205;-68
2022/03/17 01:03:08;;;;;;;36.13;29.50;;;;;;;;;;5057505;28;20201;-68
2022/03/17 01:05:35;;;;;;;38.28;31.13;;;;;;;;;;5057108;28;20232;-68
2022/03/17 01:08:02;;;;;;;38.97;31.20;;;;;;;;;;5057102;28;20209;-68
2022/03/17 01:10:28;;;;;;;37.67;30.23;;;;;;;;;;5056745;28;20291;-68
2022/03/17 01:12:56;;;;;;;34.97;29.63;;;;;;;;;;5057027;28;20255;-68
2022/03/17 01:15:22;;;;;;;34.90;28.30;;;;;;;;;;5057194;28;20427;-68
2022/03/17 01:17:48;;;;;;;37.58;31.00;;;;;;;;;;5056561;28;20279;-68
2022/03/17 01:20:15;;;;;;;36.97;30.42;;;;;;;;;;5056687;28;20205;-68
2022/03/17 01:22:41;;;;;;;36.95;30.85;;;;;;;;;;5056781;28;20217;-68
2022/03/17 01:25:08;;;;;;;38.47;29.88;;;;;;;;;;5056949;28;20216;-68
2022/03/17 01:27:35;;;;;;;35.95;30.02;;;;;;;;;;5056788;28;20254;-68
2022/03/17 01:30:03;;;;;;;35.33;29.63;;;;;;;;;;5056373;28;20485;-68
2022/03/17 01:32:32;;;;;;;37.53;30.58;;;;;;;;;;5056936;28;20302;-68
2022/03/17 01:34:58;;;;;;;36.22;29.58;;;;;;;;;;5056619;28;20209;-68
2022/03/17 01:37:24;;;;;;;34.05;28.67;;;;;;;;;;5056572;28;20433;-68
2022/03/17 01:39:51;;;;;;;37.55;30.20;;;;;;;;;;5056053;28;20570;-68
2022/03/17 01:42:17;;;;;;;34.90;30.08;;;;;;;;;;5056954;28;20262;-68
2022/03/17 01:44:43;;;;;;;35.25;29.23;;;;;;;;;;5055888;28;20357;-68
2022/03/17 01:47:29;;;;;;;36.63;30.15;;;;;;;;;;5056323;28;20255;-68
2022/03/17 01:49:56;;;;;;;35.92;29.80;;;;;;;;;;5055986;28;20552;-68
2022/03/17 01:52:23;;;;;;;35.70;29.58;;;;;;;;;;5056548;28;20231;-68
2022/03/17 01:54:50;;;;;;;39.90;29.90;;;;;;;;;;5056932;28;20231;-68
2022/03/17 01:57:16;;;;;;;35.47;30.15;;;;;;;;;;5056331;28;20216;-68
2022/03/17 01:59:43;;;;;;;38.28;30.48;;;;;;;;;;5055988;28;20236;-68
2022/03/17 02:02:12;;;;;;;38.95;30.05;;;;;;;;;;5056800;28;20255;-68
2022/03/17 02:04:41;;;;;;;36.53;29.42;;;;;;;;;;5056569;28;20492;-68
2022/03/17 02:07:08;;;;;;;36.28;30.00;;;;;;;;;;5056394;28;20208;-67
2022/03/17 02:09:35;;;;;;;37.35;30.10;;;;;;;;;;5055972;28;20233;-68
2022/03/17 02:14:49;;;;;;;37.20;29.65;;;;;;;;;;5056733;28;20209;-68
2022/03/17 02:17:17;;;;;;;38.47;30.00;;;;;;;;;;5056051;28;20247;-68
2022/03/17 02:19:44;;;;;;;38.13;30.02;;;;;;;;;;5056047;28;20209;-68
2022/03/17 02:22:11;;;;;;;36.47;30.00;;;;;;;;;;5056334;28;20200;-67
2022/03/17 02:27:24;;;;;;;37.30;29.17;;;;;;;;;;5056052;28;20215;-68
2022/03/17 02:29:50;;;;;;;38.13;30.70;;;;;;;;;;5055607;28;20221;-67
2022/03/17 02:32:17;;;;;;;36.75;29.88;;;;;;;;;;5056098;28;20212;-68
2022/03/17 02:34:44;;;;;;;37.17;30.45;;;;;;;;;;5056309;28;20532;-68
2022/03/17 02:37:12;;;;;;;37.38;30.58;;;;;;;;;;5056024;28;20212;-68
2022/03/17 02:39:40;;;;;;;38.60;32.15;;;;;;;;;;5053704;28;20508;-68
2022/03/17 02:42:06;;;;;;;40.72;31.83;;;;;;;;;;5056135;28;20478;-68
2022/03/17 02:44:32;;;;;;;41.33;31.52;;;;;;;;;;5065408;28;20233;-68
2022/03/17 02:46:59;;;;;;;39.53;31.38;;;;;;;;;;5076282;28;20220;-68
2022/03/17 02:49:26;;;;;;;42.25;31.73;;;;;;;;;;5075646;28;20441;-68
2022/03/17 02:51:54;;;;;;;39.63;30.05;;;;;;;;;;5076130;28;20209;-67
2022/03/17 02:54:20;;;;;;;40.13;31.52;;;;;;;;;;5076169;28;20212;-68
2022/03/17 02:56:48;;;;;;;38.58;31.80;;;;;;;;;;5077003;28;20215;-68
2022/03/17 02:59:14;;;;;;;37.13;29.92;;;;;;;;;;5079335;28;20212;-68
2022/03/17 03:01:40;;;;;;;36.70;29.58;;;;;;;;;;5079603;28;20205;-68
2022/03/17 03:04:07;;;;;;;38.53;29.70;;;;;;;;;;5079506;28;20208;-68
2022/03/17 03:06:33;;;;;;;37.08;29.67;;;;;;;;;;5079069;28;20476;-68
2022/03/17 03:08:59;;;;;;;41.28;30.55;;;;;;;;;;5078782;28;20208;-67
2022/03/17 03:11:25;;;;;;;38.95;29.42;;;;;;;;;;5079327;28;20216;-68
2022/03/17 03:13:53;;;;;;;35.92;28.98;;;;;;;;;;5079680;28;20262;-68
2022/03/17 03:16:19;;;;;;;37.55;30.15;;;;;;;;;;5079031;28;20236;-68
2022/03/17 03:18:46;;;;;;;42.38;30.92;;;;;;;;;;5078996;28;20520;-68
2022/03/17 03:21:12;;;;;;;37.33;28.88;;;;;;;;;;5078810;28;20204;-68
2022/03/17 03:23:38;;;;;;;36.78;29.33;;;;;;;;;;5079177;28;20216;-68
2022/03/17 03:26:04;;;;;;;36.85;29.75;;;;;;;;;;5078943;28;20235;-68
2022/03/17 03:28:31;;;;;;;40.42;30.27;;;;;;;;;;5078847;28;20532;-68
2022/03/17 03:30:58;;;;;;;38.10;30.00;;;;;;;;;;5078731;28;20270;-68
2022/03/17 03:33:25;;;;;;;38.88;29.98;;;;;;;;;;5079155;28;20544;-68
2022/03/17 03:38:35;;;;;;;38.30;30.48;;;;;;;;;;5062037;28;20215;-68
2022/03/17 03:41:01;;;;;;;39.20;30.92;;;;;;;;;;5058085;28;20247;-68
2022/03/17 03:43:27;;;;;;;39.42;31.13;;;;;;;;;;5058779;28;20213;-68
2022/03/17 03:45:54;;;;;;;41.33;31.50;;;;;;;;;;5058779;28;20213;-68
2022/03/17 03:48:22;;;;;;;40.90;32.00;;;;;;;;;;5058281;28;20408;-68
2022/03/17 03:50:48;;;;;;;44.40;32.70;;;;;;;;;;5058247;28;20271;-68
2022/03/17 03:53:14;;;;;;;41.00;32.75;;;;;;;;;;5058606;28;20266;-68
2022/03/17 03:55:41;;;;;;;40.78;32.10;;;;;;;;;;5058217;28;20239;-67
2022/03/17 03:58:07;;;;;;;42.33;33.28;;;;;;;;;;5057946;28;20209;-67
2022/03/17 04:00:34;;;;;;;43.30;32.58;;;;;;;;;;5058345;28;20583;-67
2022/03/17 04:03:03;;;;;;;42.25;33.03;;;;;;;;;;5058201;28;20209;-68
2022/03/17 04:05:31;;;;;;;41.05;31.70;;;;;;;;;;5058534;28;20225;-68
2022/03/17 04:07:57;;;;;;;42.17;32.97;;;;;;;;;;5057741;28;20258;-68
2022/03/17 04:10:24;;;;;;;40.72;31.95;;;;;;;;;;5057972;28;20231;-68
2022/03/17 04:12:50;;;;;;;39.20;31.10;;;;;;;;;;5058314;28;20274;-68
2022/03/17 04:15:17;;;;;;;42.42;31.55;;;;;;;;;;5058583;28;20434;-68
2022/03/17 04:17:43;;;;;;;40.70;32.50;;;;;;;;;;5057404;28;20454;-68
2022/03/17 04:20:10;;;;;;;39.53;31.98;;;;;;;;;;5057723;28;20528;-68
2022/03/17 04:22:38;;;;;;;42.72;33.20;;;;;;;;;;5058305;28;20209;-68
2022/03/17 04:25:05;;;;;;;40.58;31.38;;;;;;;;;;5058365;28;20217;-67
2022/03/17 04:27:31;;;;;;;41.80;33.03;;;;;;;;;;5057591;28;20216;-67
2022/03/17 04:29:58;;;;;;;43.72;33.55;;;;;;;;;;5057252;28;20560;-68
2022/03/17 04:32:24;;;;;;;40.78;31.95;;;;;;;;;;5057740;28;20578;-68
2022/03/17 04:34:50;;;;;;;41.92;33.20;;;;;;;;;;5057681;28;20285;-68
2022/03/17 04:37:16;;;;;;;42.08;32.65;;;;;;;;;;5057869;28;20227;-68
2022/03/17 04:39:44;;;;;;;41.70;31.77;;;;;;;;;;5057505;28;20250;-68
2022/03/17 04:42:11;;;;;;;39.92;32.58;;;;;;;;;;5057814;28;20220;-68
2022/03/17 04:44:37;;;;;;;42.50;32.88;;;;;;;;;;5057559;28;20217;-68
2022/03/17 04:47:03;;;;;;;42.40;32.80;;;;;;;;;;5057751;28;20255;-68
2022/03/17 04:49:30;;;;;;;43.40;32.55;;;;;;;;;;5057438;28;20335;-68
2022/03/17 04:51:56;;;;;;;44.15;33.25;;;;;;;;;;5057365;28;20251;-68
2022/03/17 04:54:22;;;;;;;41.38;32.50;;;;;;;;;;5057813;28;20209;-68
2022/03/17 04:56:50;;;;;;;41.65;32.70;;;;;;;;;;5056928;28;20208;-68
2022/03/17 04:59:19;;;;;;;43.60;32.78;;;;;;;;;;5056932;28;20209;-68
2022/03/17 05:01:45;;;;;;;44.72;33.17;;;;;;;;;;5056863;28;20251;-67
2022/03/17 05:04:11;;;;;;;40.28;31.70;;;;;;;;;;5057192;28;20517;-67
2022/03/17 05:06:37;;;;;;;42.53;31.92;;;;;;;;;;5056871;28;20575;-67
2022/03/17 05:09:04;;;;;;;45.75;33.85;;;;;;;;;;5057001;28;20209;-67
2022/03/17 05:11:32;;;;;;;43.22;33.13;;;;;;;;;;5056842;28;20301;-67
2022/03/17 05:13:59;;;;;;;45.75;32.70;;;;;;;;;;5057098;28;20467;-67
2022/03/17 05:16:26;;;;;;;44.05;34.72;;;;;;;;;;5057325;28;20651;-66
2022/03/17 05:18:52;;;;;;;45.85;33.15;;;;;;;;;;5056798;28;20403;-66
2022/03/17 05:21:19;;;;;;;44.78;33.75;;;;;;;;;;5056369;28;20205;-66
2022/03/17 05:23:45;;;;;;;45.00;33.40;;;;;;;;;;5056995;28;20209;-66
2022/03/17 05:26:12;;;;;;;45.13;33.35;;;;;;;;;;5056806;28;20208;-66
2022/03/17 05:28:38;;;;;;;39.75;32.10;;;;;;;;;;5056638;28;20267;-66
2022/03/17 05:31:06;;;;;;;44.72;33.45;;;;;;;;;;5056501;28;20474;-66
2022/03/17 05:33:32;;;;;;;40.97;32.53;;;;;;;;;;5057009;28;20569;-66
2022/03/17 05:35:59;;;;;;;44.45;33.60;;;;;;;;;;5056703;28;20267;-66
2022/03/17 05:38:25;;;;;;;43.17;32.47;;;;;;;;;;5056357;28;20231;-66
2022/03/17 05:40:52;;;;;;;45.63;33.15;;;;;;;;;;5056265;28;20209;-66
2022/03/17 05:43:18;;;;;;;48.42;33.85;;;;;;;;;;5056806;28;20209;-66
2022/03/17 05:45:44;;;;;;;42.15;31.27;;;;;;;;;;5056882;28;20208;-66
2022/03/17 05:48:12;;;;;;;45.67;32.63;;;;;;;;;;5056348;28;20208;-66
2022/03/17 05:50:39;;;;;;;48.95;33.55;;;;;;;;;;5056040;28;20225;-66
2022/03/17 05:53:06;;;;;;;47.75;32.03;;;;;;;;;;5056580;28;20215;-66
2022/03/17 05:55:32;;;;;;;44.33;32.25;;;;;;;;;;5056650;28;20213;-66
2022/03/17 05:57:58;;;;;;;46.78;33.30;;;;;;;;;;5056476;28;20255;-66
2022/03/17 06:00:26;;;;;;;46.60;33.75;;;;;;;;;;5056201;28;20217;-66
2022/03/17 06:02:52;;;;;;;40.85;32.67;;;;;;;;;;5056520;28;20208;-66
2022/03/17 06:05:20;;;;;;;45.40;32.28;;;;;;;;;;5056310;28;20279;-66
2022/03/17 06:07:48;;;;;;;41.30;32.47;;;;;;;;;;5056033;28;20216;-66
2022/03/17 06:10:14;;;;;;;45.75;32.05;;;;;;;;;;5056077;28;20275;-66
2022/03/17 06:12:41;;;;;;;44.00;32.75;;;;;;;;;;5056597;28;20231;-66
2022/03/17 06:15:07;;;;;;;43.63;32.03;;;;;;;;;;5056565;28;20255;-66
2022/03/17 06:17:38;;;;;;;46.05;31.15;;;;;;;;;;5056350;28;20209;-66
2022/03/17 06:20:04;;;;;;;43.88;32.20;;;;;;;;;;5063421;28;20567;-66
2022/03/17 06:22:32;;;;;;;42.65;31.65;;;;;;;;;;5067437;28;20243;-66
2022/03/17 06:24:58;;;;;;;45.83;32.38;;;;;;;;;;5075664;28;20212;-66
2022/03/17 06:27:26;;;;;;;43.60;30.92;;;;;;;;;;5075718;28;20262;-66
2022/03/17 06:29:52;;;;;;;41.83;31.42;;;;;;;;;;5075603;28;20429;-66
2022/03/17 06:32:18;;;;;;;41.03;30.88;;;;;;;;;;5078925;28;20590;-66
2022/03/17 06:34:45;;;;;;;41.83;31.30;;;;;;;;;;5080069;28;20254;-67
2022/03/17 06:37:11;;;;;;;41.97;31.95;;;;;;;;;;5074568;28;20204;-66
2022/03/17 06:39:38;;;;;;;40.92;31.52;;;;;;;;;;5059012;28;20212;-66
2022/03/17 06:42:05;;;;;;;46.03;33.47;;;;;;;;;;5059752;28;20205;-66
2022/03/17 06:44:32;;;;;;;39.95;30.92;;;;;;;;;;5059456;28;20606;-66
2022/03/17 06:46:58;;;;;;;42.42;32.08;;;;;;;;;;5059065;28;20285;-66
2022/03/17 06:49:24;;;;;;;46.15;30.50;;;;;;;;;;5059046;28;20205;-66
2022/03/17 06:51:50;;;;;;;41.97;31.65;;;;;;;;;;5059334;28;20233;-66
2022/03/17 06:54:16;;;;;;;45.75;31.75;;;;;;;;;;5059903;28;20209;-66
2022/03/17 06:56:44;;;;;;;39.20;30.58;;;;;;;;;;5059698;28;20255;-66
2022/03/17 06:59:10;;;;;;;41.75;31.58;;;;;;;;;;5059509;28;20209;-66
2022/03/17 07:01:36;;;;;;;47.92;32.08;;;;;;;;;;5059543;28;20264;-66
2022/03/17 07:04:03;;;;;;;40.97;31.00;;;;;;;;;;5059618;28;20255;-67
2022/03/17 07:06:29;;;;;;;46.08;31.77;;;;;;;;;;5059014;28;20267;-67
2022/03/17 07:08:55;;;;;;;46.33;32.15;;;;;;;;;;5059270;28;20412;-67
2022/03/17 07:11:22;;;;;;;49.65;32.00;;;;;;;;;;5059298;28;20635;-67
2022/03/17 07:13:49;;;;;;;44.75;31.45;;;;;;;;;;5059471;28;20217;-67
2022/03/17 07:16:15;;;;;;;44.35;31.45;;;;;;;;;;5059183;28;20216;-67
2022/03/17 07:18:42;;;;;;;41.70;29.67;;;;;;;;;;5059303;28;20255;-67
2022/03/17 07:21:08;;;;;;;45.50;30.48;;;;;;;;;;5059258;28;20210;-67
2022/03/17 07:23:34;;;;;;;40.33;31.58;;;;;;;;;;5058911;28;20380;-67
2022/03/17 07:26:02;;;;;;;40.90;30.73;;;;;;;;;;5058916;28;20244;-67
2022/03/17 07:28:29;;;;;;;40.95;31.08;;;;;;;;;;5058930;28;20382;-67
2022/03/17 07:30:56;;;;;;;47.17;31.67;;;;;;;;;;5058758;28;20209;-67
2022/03/17 07:33:22;;;;;;;42.75;31.95;;;;;;;;;;5058948;28;20554;-67
2022/03/17 07:35:49;;;;;;;42.10;32.25;;;;;;;;;;5058807;28;20233;-67
2022/03/17 07:38:16;;;;;;;42.92;32.88;;;;;;;;;;5058598;28;20254;-67
2022/03/17 07:40:43;;;;;;;42.58;31.35;;;;;;;;;;5058732;28;20472;-67
2022/03/17 07:43:09;;;;;;;40.60;30.45;;;;;;;;;;5058308;28;20217;-67
2022/03/17 07:45:35;;;;;;;41.35;30.52;;;;;;;;;;5058974;28;20238;-67
2022/03/17 07:48:05;;;;;;;40.95;32.03;;;;;;;;;;5065569;28;20208;-67
2022/03/17 07:50:32;;;;;;;40.55;31.23;;;;;;;;;;5078330;28;20450;-67
2022/03/17 07:52:59;;;;;;;39.28;30.80;;;;;;;;;;5078860;28;20286;-67
2022/03/17 07:55:25;;;;;;;43.42;31.08;;;;;;;;;;5061067;28;20239;-68
2022/03/17 07:57:51;;;;;;;39.75;30.65;;;;;;;;;;5058360;28;20212;-68
2022/03/17 08:00:18;;;;;;;41.10;30.52;;;;;;;;;;5058254;28;20232;-67
2022/03/17 08:02:44;;;;;;;40.65;30.45;;;;;;;;;;5058634;28;20349;-67
2022/03/17 08:05:13;;;;;;;42.72;31.33;;;;;;;;;;5058453;28;20217;-67
2022/03/17 08:07:39;;;;;;;45.13;31.77;;;;;;;;;;5058591;28;20247;-68
2022/03/17 08:10:06;;;;;;;40.72;30.67;;;;;;;;;;5058157;28;20231;-61
2022/03/17 08:12:34;;;;;;;39.05;29.65;;;;;;;;;;5058516;28;20224;-59
2022/03/17 08:15:01;;;;;;;40.70;30.80;;;;;;;;;;5058326;28;20205;-59
2022/03/17 08:17:28;;;;;;;41.33;32.17;;;;;;;;;;5058419;28;20444;-60
2022/03/17 08:19:54;;;;;;;46.55;31.50;;;;;;;;;;5057868;28;20276;-60
2022/03/17 08:22:21;;;;;;;44.72;32.25;;;;;;;;;;5058224;28;20201;-60
2022/03/17 08:24:48;;;;;;;39.38;31.23;;;;;;;;;;5057932;28;20220;-60
2022/03/17 08:27:14;;;;;;;45.90;32.33;;;;;;;;;;5057657;28;20216;-60
2022/03/17 08:29:41;;;;;;;44.25;31.98;;;;;;;;;;5057370;28;20213;-60
2022/03/17 08:32:08;;;;;;;42.67;30.83;;;;;;;;;;5057875;28;20309;-59
2022/03/17 08:34:35;;;;;;;40.67;31.60;;;;;;;;;;5057788;28;20211;-60
2022/03/17 08:37:01;;;;;;;40.97;31.80;;;;;;;;;;5057430;28;20197;-60
2022/03/17 08:39:29;;;;;;;44.08;32.15;;;;;;;;;;5057021;28;20209;-59
2022/03/17 08:41:56;;;;;;;41.70;31.27;;;;;;;;;;5057763;28;20532;-60
2022/03/17 08:44:22;;;;;;;42.80;31.48;;;;;;;;;;5057416;28;20209;-60
2022/03/17 08:49:33;;;;;;;38.55;31.35;;;;;;;;;;5057095;28;20276;-59
2022/03/17 08:52:00;;;;;;;43.13;31.70;;;;;;;;;;5057286;28;20233;-60
2022/03/17 08:54:27;;;;;;;45.50;30.95;;;;;;;;;;5056374;28;20209;-60
2022/03/17 08:56:59;;;;;;;40.20;31.75;;;;;;;;;;5058022;28;20201;-62
2022/03/17 08:59:25;;;;;;;47.42;31.88;;;;;;;;;;5058260;28;20513;-61
2022/03/17 09:01:52;;;;;;;43.65;31.65;;;;;;;;;;5056878;28;20205;-60
2022/03/17 09:04:18;;;;;;;44.08;34.35;;;;;;;;;;5057014;28;20518;-61
2022/03/17 09:06:44;;;;;;;41.42;31.67;;;;;;;;;;5056620;28;20652;-59
2022/03/17 09:09:11;;;;;;;42.00;33.17;;;;;;;;;;5056447;28;20209;-60
2022/03/17 09:11:37;;;;;;;41.35;32.90;;;;;;;;;;5057333;28;20224;-60
2022/03/17 09:14:07;;;;;;;44.65;32.67;;;;;;;;;;5057352;28;20529;-60
2022/03/17 09:16:33;;;;;;;47.35;32.95;;;;;;;;;;5056881;28;20248;-61
2022/03/17 09:18:59;;;;;;;45.47;34.38;;;;;;;;;;5056763;28;20209;-61
2022/03/17 09:21:27;;;;;;;44.13;32.50;;;;;;;;;;5057084;28;20594;-62
2022/03/17 09:23:54;;;;;;;45.53;33.00;;;;;;;;;;5056901;28;20266;-62
2022/03/17 09:26:20;;;;;;;45.03;33.30;;;;;;;;;;5056987;28;20540;-61
2022/03/17 09:28:46;;;;;;;41.38;32.28;;;;;;;;;;5056876;28;20205;-60
2022/03/17 09:31:14;;;;;;;47.20;34.20;;;;;;;;;;5056838;28;20221;-61
2022/03/17 09:33:40;;;;;;;49.63;34.78;;;;;;;;;;5056778;28;20228;-60
2022/03/17 09:36:06;;;;;;;46.28;33.75;;;;;;;;;;5056588;28;20520;-61
2022/03/17 09:38:33;;;;;;;47.17;33.17;;;;;;;;;;5056407;28;20224;-61
2022/03/17 09:40:59;;;;;;;46.50;31.83;;;;;;;;;;5056174;28;20217;-59
2022/03/17 09:43:31;;;;;;;42.97;32.70;;;;;;;;;;5056608;28;20247;-61
2022/03/17 09:45:58;;;;;;;47.58;33.58;;;;;;;;;;5056347;28;20209;-61
2022/03/17 09:48:27;;;;;;;44.28;33.58;;;;;;;;;;5056539;28;20209;-62
2022/03/17 09:50:55;;;;;;;45.30;33.75;;;;;;;;;;5056366;28;20213;-60
2022/03/17 09:53:22;;;;;;;44.42;33.78;;;;;;;;;;5056502;28;20253;-61
2022/03/17 09:55:48;;;;;;;44.67;34.33;;;;;;;;;;5056428;28;20279;-60
2022/03/17 09:58:15;;;;;;;42.53;33.15;;;;;;;;;;5056400;28;20232;-61
2022/03/17 10:00:52;;;;;;;45.05;33.38;;;;;;;;;;5055861;28;20232;-61
2022/03/17 10:03:20;;;;;;;45.72;34.05;;;;;;;;;;5059947;28;20264;-60
2022/03/17 10:05:48;;;;;;;42.15;32.28;;;;;;;;;;5060389;28;20229;-60
2022/03/17 10:08:15;;;;;;;44.13;34.30;;;;;;;;;;5063351;28;20471;-61
2022/03/17 10:10:42;;;;;;;45.50;33.72;;;;;;;;;;5063585;28;20244;-60
2022/03/17 10:13:11;;;;;;;44.90;33.10;;;;;;;;;;5063200;28;20416;-62
2022/03/17 10:15:37;;;;;;;41.85;33.28;;;;;;;;;;5063050;28;20229;-61
2022/03/17 10:18:18;;;;;;;44.47;33.55;;;;;;;;;;5063315;28;20389;-62
2022/03/17 10:20:44;;;;;;;46.60;33.60;;;;;;;;;;5063251;28;20243;-61
2022/03/17 10:23:12;;;;;;;44.40;34.28;;;;;;;;;;5063230;28;20197;-61
2022/03/17 10:25:38;;;;;;;42.28;33.53;;;;;;;;;;5062792;28;20213;-61
2022/03/17 10:28:04;;;;;;;43.42;33.40;;;;;;;;;;5062889;28;20209;-61
2022/03/17 10:30:33;;;;;;;49.88;34.30;;;;;;;;;;5063151;28;20208;-61
2022/03/17 10:33:00;;;;;;;43.88;33.25;;;;;;;;;;5062770;28;20232;-62
2022/03/17 10:35:34;;;;;;;45.63;33.45;;;;;;;;;;5063088;28;20201;-62
2022/03/17 10:38:08;;;;;;;42.42;33.55;;;;;;;;;;5062718;28;20235;-61
2022/03/17 10:40:36;;;;;;;45.15;34.47;;;;;;;;;;5062952;28;20244;-61
2022/03/17 10:43:16;;;;;;;46.97;35.45;;;;;;;;;;5062745;28;20201;-60
2022/03/17 10:45:42;;;;;;;46.45;33.10;;;;;;;;;;5062854;28;20212;-60
2022/03/17 10:48:09;;;;;;;45.65;34.70;;;;;;;;;;5062549;28;20243;-61
2022/03/17 10:50:38;;;;;;;49.97;34.20;;;;;;;;;;5062707;28;20205;-62
2022/03/17 10:53:04;;;;;;;47.35;34.22;;;;;;;;;;5062447;28;20263;-61
2022/03/17 10:55:32;;;;;;;82.47;35.78;;;;;;;;;;5062850;28;20209;-61
2022/03/17 10:58:12;;;;;;;103.13;37.30;;;;;;;;;;5062659;28;20211;-65
2022/03/17 11:00:45;;;;;;;48.72;34.03;;;;;;;;;;5061999;28;20339;-60
2022/03/17 11:03:11;;;;;;;47.45;33.30;;;;;;;;;;5062038;28;20205;-61
2022/03/17 11:05:38;;;;;;;39.95;31.65;;;;;;;;;;5061790;28;20263;-60
2022/03/17 11:08:06;;;;;;;42.35;33.55;;;;;;;;;;5061487;28;20243;-60
2022/03/17 11:10:32;;;;;;;47.13;33.70;;;;;;;;;;5061758;28;20280;-61
2022/03/17 11:13:04;;;;;;;45.55;32.40;;;;;;;;;;5061777;28;20275;-61
2022/03/17 11:15:31;;;;;;;50.67;32.65;;;;;;;;;;5062048;28;20397;-61
2022/03/17 11:18:03;;;;;;;47.42;34.30;;;;;;;;;;5060496;28;20409;-61
2022/03/17 11:20:29;;;;;;;51.53;34.85;;;;;;;;;;5061238;28;20543;-60
2022/03/17 11:23:20;;;;;;;47.33;34.05;;;;;;;;;;5061623;28;20205;-60
2022/03/17 11:25:51;;;;;;;48.08;34.00;;;;;;;;;;5041390;28;20410;-61
2022/03/17 11:28:20;;;;;;;47.90;35.75;;;;;;;;;;5061533;28;20216;-61
2022/03/17 11:30:47;;;;;;;41.97;32.65;;;;;;;;;;5061376;28;20212;-60
2022/03/17 11:33:23;;;;;;;44.95;31.45;;;;;;;;;;5061134;28;20221;-61
2022/03/17 11:35:53;;;;;;;51.90;34.47;;;;;;;;;;5062027;28;20208;-61
2022/03/17 11:38:23;;;;;;;54.78;36.47;;;;;;;;;;5061571;28;20204;-60
2022/03/17 11:41:04;;;;;;;49.08;35.72;;;;;;;;;;5061739;28;20205;-60
2022/03/17 11:43:39;;;;;;;45.90;33.60;;;;;;;;;;5061794;28;20201;-61
2022/03/17 11:46:12;;;;;;;53.30;35.75;;;;;;;;;;5061651;28;20209;-60
2022/03/17 11:48:39;;;;;;;42.45;31.50;;;;;;;;;;5061458;28;20205;-61
2022/03/17 11:51:06;;;;;;;50.55;30.13;;;;;;;;;;5061483;28;20505;-59
2022/03/17 11:53:40;;;;;;;45.42;30.40;;;;;;;;;;5061833;28;20288;-61
2022/03/17 11:56:07;;;;;;;97.75;31.23;;;;;;;;;;5061756;28;20205;-60
2022/03/17 11:58:43;;;;;;;62.38;32.25;;;;;;;;;;5061224;28;20217;-61
2022/03/17 12:01:11;;;;;;;51.15;31.65;;;;;;;;;;5061403;28;20205;-60
2022/03/17 12:03:38;;;;;;;54.30;31.65;;;;;;;;;;5061487;28;20277;-61
2022/03/17 12:06:05;;;;;;;49.00;32.35;;;;;;;;;;5060959;28;20232;-61
2022/03/17 12:08:35;;;;;;;49.95;32.25;;;;;;;;;;5061045;28;20205;-61
2022/03/17 12:11:06;;;;;;;45.67;31.35;;;;;;;;;;5061268;28;20251;-61
2022/03/17 12:13:34;;;;;;;50.25;31.77;;;;;;;;;;5061162;28;20432;-60
2022/03/17 12:16:02;;;;;;;46.30;32.08;;;;;;;;;;5061118;28;20280;-60
2022/03/17 12:18:29;;;;;;;48.65;31.38;;;;;;;;;;5061113;28;20574;-57
2022/03/17 12:20:57;;;;;;;45.72;31.20;;;;;;;;;;5061214;28;20204;-58
2022/03/17 12:23:41;;;;;;;43.75;32.30;;;;;;;;;;5061377;28;20232;-60
2022/03/17 12:26:08;;;;;;;53.03;33.65;;;;;;;;;;5060843;28;20211;-58
2022/03/17 12:28:34;;;;;;;47.10;31.92;;;;;;;;;;5060744;28;20531;-56
2022/03/17 12:31:00;;;;;;;45.50;33.33;;;;;;;;;;5060855;28;20209;-57
2022/03/17 12:33:28;;;;;;;55.08;33.17;;;;;;;;;;5060780;28;20564;-57
2022/03/17 12:36:03;;;;;;;46.55;34.08;;;;;;;;;;5060687;28;20300;-58
2022/03/17 12:38:30;;;;;;;46.20;33.50;;;;;;;;;;5060957;28;20204;-57
2022/03/17 12:40:57;;;;;;;46.22;33.97;;;;;;;;;;5060563;28;20396;-58
2022/03/17 12:43:24;;;;;;;47.15;33.42;;;;;;;;;;5060609;28;20396;-58
2022/03/17 12:45:51;;;;;;;47.15;34.00;;;;;;;;;;5060342;28;20399;-56
2022/03/17 12:48:18;;;;;;;49.28;35.67;;;;;;;;;;5060432;28;20232;-58
2022/03/17 12:50:46;;;;;;;51.10;35.65;;;;;;;;;;5060368;28;20269;-57
2022/03/17 12:53:13;;;;;;;47.88;36.25;;;;;;;;;;5060733;28;20229;-57
2022/03/17 12:55:39;;;;;;;47.83;35.45;;;;;;;;;;5060444;28;20666;-58
2022/03/17 12:58:05;;;;;;;47.92;34.17;;;;;;;;;;5060088;28;20409;-57
2022/03/17 13:00:32;;;;;;;48.53;33.90;;;;;;;;;;5060225;28;20204;-57
2022/03/17 13:02:59;;;;;;;50.10;34.88;;;;;;;;;;5060457;28;20468;-57
2022/03/17 13:08:11;;;;;;;49.00;34.22;;;;;;;;;;5059994;28;20243;-56
2022/03/17 13:16:03;;;;;;;49.63;35.15;;;;;;;;;;5057159;28;20543;-58
2022/03/17 13:18:39;;;;;;;45.05;33.30;;;;;;;;;;5057183;28;20446;-57
2022/03/17 13:21:06;;;;;;;51.28;35.05;;;;;;;;;;5057199;28;20213;-57
2022/03/17 13:23:36;;;;;;;48.53;34.78;;;;;;;;;;5056609;28;20540;-57
2022/03/17 13:26:02;;;;;;;46.05;34.33;;;;;;;;;;5057067;28;20209;-58
2022/03/17 13:28:28;;;;;;;45.10;33.22;;;;;;;;;;5056621;28;20255;-58
2022/03/17 13:30:56;;;;;;;46.13;34.35;;;;;;;;;;5056475;28;20233;-58
2022/03/17 13:33:26;;;;;;;52.63;34.67;;;;;;;;;;5056493;28;20485;-58
2022/03/17 13:35:53;;;;;;;46.85;32.45;;;;;;;;;;5056574;28;20239;-57
2022/03/17 13:38:21;;;;;;;48.25;33.13;;;;;;;;;;5056305;28;20521;-57
2022/03/17 13:40:49;;;;;;;47.92;33.35;;;;;;;;;;5053065;28;20440;-56
2022/03/17 13:43:16;;;;;;;47.58;34.38;;;;;;;;;;5056900;28;20201;-58
2022/03/17 13:45:43;;;;;;;49.10;33.75;;;;;;;;;;5056618;28;20209;-58
2022/03/17 13:48:10;;;;;;;45.83;33.90;;;;;;;;;;5056364;28;20279;-58
2022/03/17 13:50:39;;;;;;;44.25;33.25;;;;;;;;;;5056162;28;20231;-56
2022/03/17 13:53:06;;;;;;;48.35;34.25;;;;;;;;;;5056555;28;20235;-57
2022/03/17 13:55:34;;;;;;;49.08;33.42;;;;;;;;;;5057002;28;20516;-56
2022/03/17 13:58:12;;;;;;;43.03;33.03;;;;;;;;;;5056110;28;20208;-56
2022/03/17 14:00:38;;;;;;;48.40;33.28;;;;;;;;;;5056277;28;20213;-57
2022/03/17 14:03:12;;;;;;;41.55;31.77;;;;;;;;;;5056470;28;20209;-57
2022/03/17 14:05:53;;;;;;;47.92;33.22;;;;;;;;;;5056755;28;20231;-58
2022/03/17 14:08:21;;;;;;;47.67;33.08;;;;;;;;;;5056070;28;20223;-56
2022/03/17 14:10:47;;;;;;;49.30;33.85;;;;;;;;;;5056253;28;20506;-57
2022/03/17 14:13:14;;;;;;;44.50;33.53;;;;;;;;;;5056255;28;20462;-56
2022/03/17 14:15:41;;;;;;;44.00;30.05;;;;;;;;;;5056474;28;20209;-57
2022/03/17 14:18:07;;;;;;;39.05;29.23;;;;;;;;;;5056492;28;20515;-58
2022/03/17 14:20:33;;;;;;;44.15;32.17;;;;;;;;;;5056174;28;20201;-58
2022/03/17 14:25:45;;;;;;;41.25;31.83;;;;;;;;;;5056123;28;20270;-58
2022/03/17 14:28:11;;;;;;;42.97;32.40;;;;;;;;;;5056239;28;20247;-58
2022/03/17 14:30:39;;;;;;;40.22;31.92;;;;;;;;;;5055926;28;20508;-57
2022/03/17 14:33:05;;;;;;;42.22;32.35;;;;;;;;;;5056367;28;20436;-57
2022/03/17 14:35:33;;;;;;;39.47;31.42;;;;;;;;;;5056251;28;20410;-58
2022/03/17 14:37:59;;;;;;;43.03;31.55;;;;;;;;;;5056119;28;20216;-57
2022/03/17 14:40:26;;;;;;;47.70;32.00;;;;;;;;;;5055385;28;20201;-59